createdAt,value
2023-06-11T00:01:43.889Z,101899.28
2023-06-11T00:03:53.487Z,101894.94
2023-06-11T00:05:55.138Z,101903.13
2023-06-11T00:08:01.423Z,101902.31
2023-06-11T00:10:04.497Z,101904.19
2023-06-11T00:12:06.662Z,101902.53
2023-06-11T00:14:09.767Z,101901.75
2023-06-11T00:16:14.100Z,101902.69
2023-06-11T00:18:18.005Z,101901.91
2023-06-11T00:20:19.593Z,101903.81
2023-06-11T00:22:21.082Z,101902.06
2023-06-11T00:24:22.709Z,101894.19
2023-06-11T00:26:24.203Z,101896.94
2023-06-11T00:28:25.771Z,101893.56
2023-06-11T00:30:27.276Z,101899.88
2023-06-11T00:32:28.879Z,101902.78
2023-06-11T00:34:30.429Z,101901.28
2023-06-11T00:36:33.682Z,101907.59
2023-06-11T00:38:35.436Z,101902.31
2023-06-11T00:40:36.997Z,101899.72
2023-06-11T00:42:39.245Z,101899.88
2023-06-11T00:44:41.726Z,101896.41
2023-06-11T00:46:43.736Z,101902.75
2023-06-11T00:48:45.628Z,101911.75
2023-06-11T00:50:52.003Z,101900.16
2023-06-11T00:52:53.565Z,101899.22
2023-06-11T00:54:58.654Z,101896.53
2023-06-11T00:57:01.162Z,101898.41
2023-06-11T00:59:02.720Z,101900.16
2023-06-11T01:01:06.717Z,101898.41
2023-06-11T01:03:12.387Z,101895.72
2023-06-11T01:05:18.879Z,101896.75
2023-06-11T01:07:23.717Z,101902.03
2023-06-11T01:09:26.321Z,101900.16
2023-06-11T01:11:28.576Z,101904.56
2023-06-11T01:13:30.168Z,101900.91
2023-06-11T01:15:31.678Z,101907.13
2023-06-11T01:17:45.894Z,101904.38
2023-06-11T01:19:59.679Z,101911.47
2023-06-11T01:22:55.298Z,101904.28
2023-06-11T01:25:12.400Z,101914.06
2023-06-11T01:27:28.960Z,101908.63
2023-06-11T01:29:30.803Z,101913.97
2023-06-11T01:31:35.684Z,101915.81
2023-06-11T01:33:37.406Z,101905.94
2023-06-11T01:35:40.281Z,101912.25
2023-06-11T01:37:46.555Z,101914.06
2023-06-11T01:39:48.570Z,101920.38
2023-06-11T01:41:50.256Z,101916.97
2023-06-11T01:43:51.795Z,101920.56
2023-06-11T01:45:53.295Z,101921.59
2023-06-11T01:47:55.172Z,101920.81
2023-06-11T01:49:56.707Z,101918.28
2023-06-11T01:51:58.230Z,101924.66
2023-06-11T01:54:00.471Z,101921.19
2023-06-11T01:56:02.064Z,101924.03
2023-06-11T01:58:03.558Z,101925.84
2023-06-11T02:00:07.936Z,101931.50
2023-06-11T02:02:09.571Z,101929.91
2023-06-11T02:04:11.603Z,101929.19
2023-06-11T02:06:13.168Z,101929.34
2023-06-11T02:08:14.671Z,101923.34
2023-06-11T02:10:16.225Z,101923.41
2023-06-11T02:12:17.706Z,101925.34
2023-06-11T02:14:19.258Z,101926.31
2023-06-11T02:16:20.793Z,101924.66
2023-06-11T02:18:22.275Z,101931.03
2023-06-11T02:20:23.799Z,101936.53
2023-06-11T02:22:25.295Z,101936.84
2023-06-11T02:24:27.355Z,101929.81
2023-06-11T02:26:28.858Z,101939.88
2023-06-11T02:28:30.351Z,101938.22
2023-06-11T02:30:31.838Z,101938.34
2023-06-11T02:32:33.403Z,101933.16
2023-06-11T02:34:34.973Z,101936.91
2023-06-11T02:36:37.556Z,101928.16
2023-06-11T02:38:39.166Z,101934.63
2023-06-11T02:40:40.650Z,101929.41
2023-06-11T02:42:42.219Z,101930.44
2023-06-11T02:44:43.744Z,101927.03
2023-06-11T02:46:45.292Z,101927.97
2023-06-11T02:48:46.826Z,101932.59
2023-06-11T02:50:48.303Z,101931.88
2023-06-11T02:52:49.822Z,101930.28
2023-06-11T02:54:51.387Z,101941.03
2023-06-11T02:56:52.935Z,101935.91
2023-06-11T02:58:54.498Z,101929.81
2023-06-11T03:00:55.995Z,101934.38
2023-06-11T03:02:57.520Z,101936.31
2023-06-11T03:04:59.111Z,101929.41
2023-06-11T03:07:00.674Z,101935.72
2023-06-11T03:09:02.162Z,101930.56
2023-06-11T03:11:03.658Z,101936.06
2023-06-11T03:13:05.361Z,101935.31
2023-06-11T03:15:07.614Z,101931.78
2023-06-11T03:17:09.192Z,101933.00
2023-06-11T03:19:10.923Z,101938.41
2023-06-11T03:21:12.659Z,101934.94
2023-06-11T03:23:15.642Z,101948.38
2023-06-11T03:25:17.380Z,101945.03
2023-06-11T03:27:18.865Z,101946.91
2023-06-11T03:29:20.375Z,101943.47
2023-06-11T03:31:22.124Z,101938.13
2023-06-11T03:33:23.648Z,101945.34
2023-06-11T03:35:25.295Z,101942.81
2023-06-11T03:37:26.819Z,101954.41
2023-06-11T03:39:28.351Z,101947.38
2023-06-11T03:41:29.883Z,101950.06
2023-06-11T03:43:31.393Z,101947.44
2023-06-11T03:45:32.880Z,101946.66
2023-06-11T03:47:34.433Z,101946.72
2023-06-11T03:49:36.091Z,101942.44
2023-06-11T03:51:38.063Z,101950.50
2023-06-11T03:53:39.601Z,101938.03
2023-06-11T03:55:41.147Z,101947.03
2023-06-11T03:57:43.187Z,101955.94
2023-06-11T03:59:44.695Z,101942.69
2023-06-11T04:01:46.267Z,101946.28
2023-06-11T04:03:47.890Z,101947.97
2023-06-11T04:05:49.553Z,101950.56
2023-06-11T04:07:51.078Z,101952.31
2023-06-11T04:09:52.570Z,101954.78
2023-06-11T04:11:54.068Z,101951.00
2023-06-11T04:13:55.623Z,101961.38
2023-06-11T04:15:57.145Z,101954.78
2023-06-11T04:17:58.932Z,101944.63
2023-06-11T04:20:00.597Z,101941.69
2023-06-11T04:22:02.280Z,101948.50
2023-06-11T04:24:07.441Z,101949.97
2023-06-11T04:26:11.344Z,101945.28
2023-06-11T04:28:17.267Z,101946.81
2023-06-11T04:30:19.246Z,101949.22
2023-06-11T04:32:22.343Z,101953.47
2023-06-11T04:34:30.269Z,101953.28
2023-06-11T04:36:31.795Z,101944.09
2023-06-11T04:38:33.302Z,101942.00
2023-06-11T04:40:35.135Z,101946.13
2023-06-11T04:42:41.776Z,101945.16
2023-06-11T04:44:43.304Z,101943.22
2023-06-11T04:46:44.848Z,101942.03
2023-06-11T04:48:49.594Z,101946.31
2023-06-11T04:50:52.587Z,101947.97
2023-06-11T04:52:54.339Z,101945.16
2023-06-11T04:54:56.521Z,101945.81
2023-06-11T04:56:58.019Z,101953.63
2023-06-11T04:58:59.633Z,101950.66
2023-06-11T05:01:01.276Z,101953.25
2023-06-11T05:03:03.281Z,101952.16
2023-06-11T05:05:08.358Z,101954.69
2023-06-11T05:07:10.006Z,101957.00
2023-06-11T05:09:15.071Z,101960.47
2023-06-11T05:11:16.665Z,101955.75
2023-06-11T05:13:23.422Z,101955.53
2023-06-11T05:15:24.930Z,101957.34
2023-06-11T05:17:26.432Z,101964.28
2023-06-11T05:19:27.946Z,101956.09
2023-06-11T05:21:29.643Z,101964.94
2023-06-11T05:23:32.801Z,101954.78
2023-06-11T05:25:34.371Z,101951.06
2023-06-11T05:27:35.875Z,101955.28
2023-06-11T05:29:39.092Z,101951.50
2023-06-11T05:31:40.902Z,101954.91
2023-06-11T05:33:42.583Z,101955.63
2023-06-11T05:35:44.656Z,101960.19
2023-06-11T05:37:46.348Z,101954.69
2023-06-11T05:39:47.885Z,101964.22
2023-06-11T05:41:49.411Z,101972.81
2023-06-11T05:43:51.545Z,101965.72
2023-06-11T05:45:53.563Z,101970.22
2023-06-11T05:47:55.138Z,101967.47
2023-06-11T05:49:56.786Z,101971.88
2023-06-11T05:51:58.288Z,101969.19
2023-06-11T05:54:02.592Z,101979.84
2023-06-11T05:56:07.092Z,101970.94
2023-06-11T05:58:08.653Z,101970.22
2023-06-11T06:00:17.009Z,101973.69
2023-06-11T06:02:19.206Z,101970.94
2023-06-11T06:04:21.198Z,101968.09
2023-06-11T06:06:22.904Z,101969.66
2023-06-11T06:08:24.467Z,101970.47
2023-06-11T06:10:26.094Z,101968.50
2023-06-11T06:12:27.581Z,101971.72
2023-06-11T06:14:29.081Z,101971.63
2023-06-11T06:16:32.550Z,101965.94
2023-06-11T06:18:35.648Z,101975.50
2023-06-11T06:20:37.291Z,101975.66
2023-06-11T06:22:39.317Z,101971.06
2023-06-11T06:24:40.797Z,101969.97
2023-06-11T06:26:42.479Z,101968.69
2023-06-11T06:28:43.972Z,101967.75
2023-06-11T06:30:45.480Z,101974.69
2023-06-11T06:32:47.078Z,101965.22
2023-06-11T06:34:48.568Z,101970.25
2023-06-11T06:36:50.256Z,101968.03
2023-06-11T06:38:51.759Z,101967.69
2023-06-11T06:40:53.379Z,101960.97
2023-06-11T06:42:54.958Z,101971.00
2023-06-11T06:44:56.478Z,101959.84
2023-06-11T06:46:58.012Z,101964.88
2023-06-11T06:48:59.819Z,101966.25
2023-06-11T06:51:01.650Z,101969.47
2023-06-11T06:53:03.152Z,101971.81
2023-06-11T06:55:05.728Z,101972.41
2023-06-11T06:57:11.599Z,101973.91
2023-06-11T06:59:13.218Z,101978.16
2023-06-11T07:01:14.810Z,101977.91
2023-06-11T07:03:16.486Z,101972.94
2023-06-11T07:05:18.623Z,101977.00
2023-06-11T07:07:20.341Z,101969.72
2023-06-11T07:09:22.156Z,101975.97
2023-06-11T07:11:23.818Z,101977.19
2023-06-11T07:13:25.799Z,101980.50
2023-06-11T07:15:27.467Z,101981.00
2023-06-11T07:17:29.420Z,101981.78
2023-06-11T07:19:30.988Z,101980.66
2023-06-11T07:21:33.584Z,101977.19
2023-06-11T07:23:35.172Z,101975.19
2023-06-11T07:25:38.979Z,101985.66
2023-06-11T07:27:41.593Z,101975.88
2023-06-11T07:29:43.240Z,101986.81
2023-06-11T07:31:44.844Z,101987.03
2023-06-11T08:02:30.624Z,101976.75
2023-06-11T08:04:33.644Z,101978.63
2023-06-11T08:06:36.553Z,101978.66
2023-06-11T08:08:38.900Z,101980.59
2023-06-11T08:10:41.082Z,101970.84
2023-06-11T08:12:42.739Z,101978.06
2023-06-11T08:14:44.620Z,101973.84
2023-06-11T08:16:47.085Z,101977.91
2023-06-11T08:18:48.739Z,101980.19
2023-06-11T08:20:50.560Z,101973.34
2023-06-11T08:22:52.204Z,101970.13
2023-06-11T08:24:54.092Z,101970.63
2023-06-11T08:26:55.710Z,101969.66
2023-06-11T08:28:57.534Z,101969.16
2023-06-11T08:30:59.520Z,101972.19
2023-06-11T08:33:01.465Z,101978.91
2023-06-11T08:35:03.191Z,101970.91
2023-06-11T08:37:05.310Z,101979.13
2023-06-11T08:39:06.871Z,101983.88
2023-06-11T08:41:08.857Z,101977.88
2023-06-11T08:43:11.368Z,101974.94
2023-06-11T08:45:13.105Z,101977.09
2023-06-11T08:47:15.760Z,101977.53
2023-06-11T08:49:22.780Z,101973.78
2023-06-11T08:51:27.648Z,101975.19
2023-06-11T08:53:29.471Z,101981.88
2023-06-11T08:55:31.167Z,101977.88
2023-06-11T08:57:32.732Z,101970.25
2023-06-11T08:59:34.631Z,101969.06
2023-06-11T09:01:36.598Z,101970.38
2023-06-11T09:03:39.132Z,101975.22
2023-06-11T09:05:41.195Z,101968.19
2023-06-11T09:07:50.740Z,101981.16
2023-06-11T09:10:10.145Z,101967.25
2023-06-11T09:12:12.782Z,101976.53
2023-06-11T09:14:14.931Z,101966.19
2023-06-11T09:16:16.762Z,101965.97
2023-06-11T09:18:28.794Z,101968.03
2023-06-11T09:20:32.778Z,101965.00
2023-06-11T09:22:37.730Z,101967.88
2023-06-11T09:24:39.711Z,101963.66
2023-06-11T09:26:50.194Z,101967.63
2023-06-11T09:28:54.665Z,101974.44
2023-06-11T09:30:57.951Z,101977.66
2023-06-11T09:32:59.542Z,101972.81
2023-06-11T09:35:01.756Z,101967.94
2023-06-11T09:37:03.723Z,101971.19
2023-06-11T09:39:05.292Z,101965.81
2023-06-11T09:41:09.945Z,101963.19
2023-06-11T09:43:11.581Z,101968.56
2023-06-11T09:45:20.372Z,101968.72
2023-06-11T09:47:22.188Z,101973.44
2023-06-11T09:49:25.129Z,101965.63
2023-06-11T09:51:27.233Z,101965.13
2023-06-11T09:53:29.020Z,101958.75
2023-06-11T09:55:36.347Z,101963.59
2023-06-11T09:57:42.010Z,101969.41
2023-06-11T09:59:44.057Z,101957.56
2023-06-11T10:01:48.981Z,101963.00
2023-06-11T10:03:50.813Z,101964.13
2023-06-11T10:05:53.462Z,101962.78
2023-06-11T10:08:17.235Z,101959.84
2023-06-11T10:10:22.296Z,101971.31
2023-06-11T10:12:23.962Z,101962.59
2023-06-11T10:14:25.664Z,101964.59
2023-06-11T10:16:28.806Z,101966.81
2023-06-11T10:18:31.683Z,101961.88
2023-06-11T10:20:36.440Z,101958.44
2023-06-11T10:22:38.077Z,101964.34
2023-06-11T10:24:39.984Z,101953.47
2023-06-11T10:26:41.559Z,101954.94
2023-06-11T10:28:45.857Z,101953.44
2023-06-11T10:30:57.140Z,101955.94
2023-06-11T10:32:59.571Z,101958.47
2023-06-11T10:35:07.926Z,101955.50
2023-06-11T10:37:10.639Z,101955.22
2023-06-11T10:39:22.107Z,101960.28
2023-06-11T10:41:31.013Z,101953.06
2023-06-11T10:43:33.772Z,101957.06
2023-06-11T10:45:37.453Z,101948.38
2023-06-11T10:47:53.060Z,101952.88
2023-06-11T10:50:08.786Z,101956.16
2023-06-11T10:52:10.656Z,101940.94
2023-06-11T10:54:12.131Z,101946.66
2023-06-11T10:56:14.440Z,101950.69
2023-06-11T10:58:22.882Z,101955.00
2023-06-11T11:00:25.212Z,101954.38
2023-06-11T11:02:27.944Z,101952.66
2023-06-11T11:04:29.490Z,101949.16
2023-06-11T11:06:31.335Z,101950.91
2023-06-11T11:08:32.878Z,101951.03
2023-06-11T11:10:34.364Z,101940.69
2023-06-11T11:12:41.348Z,101943.44
2023-06-11T11:14:42.980Z,101953.19
2023-06-11T11:16:48.371Z,101942.56
2023-06-11T11:18:50.843Z,101943.47
2023-06-11T11:20:55.897Z,101933.81
2023-06-11T11:22:58.068Z,101930.41
2023-06-11T11:25:01.575Z,101931.78
2023-06-11T11:27:03.116Z,101930.91
2023-06-11T11:29:04.607Z,101929.19
2023-06-11T11:31:06.451Z,101925.44
2023-06-11T11:33:08.426Z,101928.03
2023-06-11T11:35:12.767Z,101926.16
2023-06-11T11:37:14.340Z,101916.53
2023-06-11T11:39:15.976Z,101921.50
2023-06-11T11:41:22.586Z,101920.16
2023-06-11T11:43:24.520Z,101924.75
2023-06-11T11:45:34.398Z,101927.13
2023-06-11T11:47:36.631Z,101913.38
2023-06-11T11:49:38.594Z,101912.50
2023-06-11T11:51:46.813Z,101919.13
2023-06-11T11:53:49.001Z,101908.22
2023-06-11T11:56:04.490Z,101917.47
2023-06-11T11:58:09.262Z,101914.78
2023-06-11T12:00:11.426Z,101907.88
2023-06-11T12:02:13.066Z,101908.69
2023-06-11T12:04:14.565Z,101905.59
2023-06-11T12:06:24.621Z,101911.03
2023-06-11T12:08:28.133Z,101910.88
2023-06-11T12:10:29.638Z,101912.84
2023-06-11T12:12:31.098Z,101907.25
2023-06-11T12:14:32.992Z,101905.66
2023-06-11T12:16:35.292Z,101913.28
2023-06-11T12:18:36.778Z,101896.75
2023-06-11T12:20:38.296Z,101906.16
2023-06-11T12:22:40.169Z,101901.97
2023-06-11T12:24:41.776Z,101895.69
2023-06-11T12:26:47.606Z,101898.88
2023-06-11T12:28:50.893Z,101906.47
2023-06-11T12:30:52.675Z,101894.97
2023-06-11T12:32:54.190Z,101897.75
2023-06-11T12:34:55.680Z,101891.00
2023-06-11T12:36:57.215Z,101895.97
2023-06-11T12:38:58.707Z,101903.00
2023-06-11T12:41:00.552Z,101892.78
2023-06-11T12:43:02.077Z,101893.59
2023-06-11T12:45:04.647Z,101898.38
2023-06-11T12:47:06.731Z,101891.94
2023-06-11T12:49:08.195Z,101893.06
2023-06-11T12:51:09.806Z,101890.16
2023-06-11T12:53:11.374Z,101886.66
2023-06-11T12:55:14.649Z,101887.31
2023-06-11T12:57:16.442Z,101888.25
2023-06-11T12:59:18.747Z,101889.69
2023-06-11T13:01:20.636Z,101892.47
2023-06-11T13:03:22.233Z,101888.50
2023-06-11T13:05:23.758Z,101879.44
2023-06-11T13:07:25.340Z,101867.81
2023-06-11T13:09:26.825Z,101871.19
2023-06-11T13:11:28.467Z,101880.78
2023-06-11T13:13:30.568Z,101874.47
2023-06-11T13:15:32.187Z,101871.44
2023-06-11T13:17:33.721Z,101874.16
2023-06-11T13:19:35.417Z,101875.53
2023-06-11T13:21:37.255Z,101871.16
2023-06-11T13:23:38.795Z,101872.03
2023-06-11T13:25:40.275Z,101872.31
2023-06-11T13:27:42.269Z,101864.03
2023-06-11T13:29:43.860Z,101860.97
2023-06-11T13:31:45.483Z,101853.66
2023-06-11T13:33:47.033Z,101862.06
2023-06-11T13:35:49.872Z,101857.50
2023-06-11T13:37:51.399Z,101860.34
2023-06-11T13:39:53.021Z,101853.47
2023-06-11T13:41:54.556Z,101863.25
2023-06-11T13:43:56.120Z,101852.09
2023-06-11T13:45:59.555Z,101861.53
2023-06-11T13:48:14.851Z,101856.38
2023-06-11T13:50:16.486Z,101852.34
2023-06-11T13:52:19.516Z,101847.91
2023-06-11T13:54:21.020Z,101844.34
2023-06-11T13:56:22.773Z,101846.66
2023-06-11T13:58:26.024Z,101845.50
2023-06-11T14:00:28.116Z,101844.50
2023-06-11T14:02:29.723Z,101841.06
2023-06-11T14:04:31.366Z,101835.75
2023-06-11T14:06:33.548Z,101840.47
2023-06-11T14:08:35.241Z,101836.75
2023-06-11T14:10:36.753Z,101827.59
2023-06-11T14:12:38.283Z,101841.53
2023-06-11T14:14:39.801Z,101843.44
2023-06-11T14:16:41.883Z,101830.84
2023-06-11T14:18:43.449Z,101847.19
2023-06-11T14:20:44.974Z,101841.47
2023-06-11T14:22:46.956Z,101836.59
2023-06-11T14:24:48.704Z,101839.47
2023-06-11T14:26:52.262Z,101838.31
2023-06-11T14:28:54.043Z,101837.16
2023-06-11T14:30:55.644Z,101837.75
2023-06-11T14:32:57.260Z,101831.44
2023-06-11T14:34:59.367Z,101838.31
2023-06-11T14:37:01.104Z,101837.47
2023-06-11T14:39:02.631Z,101836.75
2023-06-11T14:41:04.188Z,101830.16
2023-06-11T14:43:05.729Z,101821.94
2023-06-11T14:45:07.950Z,101824.06
2023-06-11T14:47:09.561Z,101822.63
2023-06-11T14:49:12.037Z,101816.94
2023-06-11T14:51:13.612Z,101811.53
2023-06-11T14:53:15.200Z,101818.69
2023-06-11T14:55:16.967Z,101811.69
2023-06-11T14:57:21.085Z,101823.41
2023-06-11T14:59:23.983Z,101822.56
2023-06-11T15:01:25.583Z,101825.59
2023-06-11T15:03:27.214Z,101821.41
2023-06-11T15:05:28.768Z,101822.84
2023-06-11T15:07:35.351Z,101820.56
2023-06-11T15:09:38.400Z,101827.31
2023-06-11T15:11:39.895Z,101824.28
2023-06-11T15:13:42.025Z,101827.84
2023-06-11T15:15:43.532Z,101828.59
2023-06-11T15:17:45.049Z,101825.72
2023-06-11T15:19:46.647Z,101826.88
2023-06-11T15:21:48.845Z,101817.69
2023-06-11T15:23:50.458Z,101821.94
2023-06-11T15:25:52.919Z,101816.91
2023-06-11T15:27:54.663Z,101813.91
2023-06-11T15:29:56.238Z,101810.88
2023-06-11T15:31:59.508Z,101811.03
2023-06-11T15:34:01.022Z,101812.16
2023-06-11T15:36:02.662Z,101802.28
2023-06-11T15:38:05.470Z,101797.84
2023-06-11T15:40:07.652Z,101804.56
2023-06-11T15:42:09.263Z,101797.28
2023-06-11T15:44:10.799Z,101802.72
2023-06-11T15:46:12.368Z,101803.00
2023-06-11T15:48:13.939Z,101803.56
2023-06-11T15:50:15.832Z,101796.66
2023-06-11T15:52:17.592Z,101803.84
2023-06-11T15:54:19.296Z,101797.41
2023-06-11T15:56:20.866Z,101792.97
2023-06-11T15:58:22.364Z,101795.13
2023-06-11T16:00:25.083Z,101785.06
2023-06-11T16:02:26.696Z,101793.22
2023-06-11T16:04:28.345Z,101788.63
2023-06-11T16:06:29.882Z,101786.34
2023-06-11T16:08:31.470Z,101781.63
2023-06-11T16:10:33.127Z,101786.34
2023-06-11T16:12:34.719Z,101787.47
2023-06-11T16:14:36.443Z,101788.19
2023-06-11T16:16:38.660Z,101785.19
2023-06-11T16:18:40.218Z,101788.19
2023-06-11T16:20:41.845Z,101776.44
2023-06-11T16:22:43.440Z,101782.59
2023-06-11T16:24:44.959Z,101783.75
2023-06-11T16:26:47.242Z,101778.31
2023-06-11T16:28:50.619Z,101785.97
2023-06-11T16:30:52.141Z,101791.16
2023-06-11T16:32:53.751Z,101787.72
2023-06-11T16:34:55.536Z,101794.28
2023-06-11T16:36:57.134Z,101792.84
2023-06-11T16:39:09.422Z,101791.69
2023-06-11T16:41:18.577Z,101783.81
2023-06-11T16:43:20.063Z,101785.81
2023-06-11T16:45:21.647Z,101789.09
2023-06-11T16:47:24.332Z,101791.34
2023-06-11T16:49:26.331Z,101785.19
2023-06-11T16:51:29.044Z,101788.16
2023-06-11T16:53:30.543Z,101785.44
2023-06-11T16:55:32.225Z,101785.59
2023-06-11T16:57:33.955Z,101780.28
2023-06-11T16:59:35.434Z,101778.13
2023-06-11T17:01:36.973Z,101782.69
2023-06-11T17:03:38.627Z,101780.25
2023-06-11T17:05:40.482Z,101773.81
2023-06-11T17:07:45.234Z,101775.53
2023-06-11T17:09:46.829Z,101776.69
2023-06-11T17:11:48.323Z,101784.09
2023-06-11T17:13:50.426Z,101784.09
2023-06-11T17:15:52.082Z,101768.22
2023-06-11T17:17:54.506Z,101777.22
2023-06-11T17:19:56.261Z,101775.50
2023-06-11T17:21:57.781Z,101779.94
2023-06-11T17:23:59.322Z,101779.22
2023-06-11T17:26:00.996Z,101778.50
2023-06-11T17:28:03.190Z,101782.19
2023-06-11T17:30:06.256Z,101786.06
2023-06-11T17:32:08.316Z,101779.63
2023-06-11T17:34:09.901Z,101781.47
2023-06-11T17:36:11.480Z,101780.03
2023-06-11T17:38:13.006Z,101777.44
2023-06-11T17:40:16.875Z,101773.84
2023-06-11T17:42:19.263Z,101770.25
2023-06-11T17:44:20.834Z,101775.84
2023-06-11T17:46:22.445Z,101773.84
2023-06-11T17:48:24.033Z,101782.13
2023-06-11T17:50:25.907Z,101774.13
2023-06-11T17:52:27.436Z,101775.69
2023-06-11T17:54:28.944Z,101779.53
2023-06-11T17:56:30.643Z,101779.53
2023-06-11T17:58:32.210Z,101771.63
2023-06-11T18:00:33.855Z,101771.63
2023-06-11T18:02:36.452Z,101774.50
2023-06-11T18:04:37.988Z,101768.47
2023-06-11T18:06:39.562Z,101778.34
2023-06-11T18:08:41.105Z,101771.03
2023-06-11T18:10:42.634Z,101773.63
2023-06-11T18:12:45.411Z,101770.06
2023-06-11T18:14:47.372Z,101773.31
2023-06-11T18:16:49.697Z,101767.88
2023-06-11T18:18:51.576Z,101766.56
2023-06-11T18:20:53.251Z,101779.13
2023-06-11T18:22:55.085Z,101781.00
2023-06-11T18:24:56.578Z,101771.00
2023-06-11T18:26:58.079Z,101769.28
2023-06-11T18:28:59.630Z,101770.94
2023-06-11T18:31:01.447Z,101777.63
2023-06-11T18:33:03.195Z,101774.19
2023-06-11T18:35:05.398Z,101772.34
2023-06-11T18:37:06.883Z,101773.47
2023-06-11T18:39:08.398Z,101780.00
2023-06-11T18:41:10.102Z,101782.84
2023-06-11T18:43:11.783Z,101787.69
2023-06-11T18:45:13.433Z,101783.63
2023-06-11T18:47:15.257Z,101785.59
2023-06-11T18:49:16.827Z,101781.69
2023-06-11T18:51:18.565Z,101785.28
2023-06-11T18:53:20.091Z,101785.75
2023-06-11T18:55:22.804Z,101780.94
2023-06-11T18:57:27.518Z,101788.84
2023-06-11T18:59:29.712Z,101787.03
2023-06-11T19:01:31.398Z,101780.78
2023-06-11T19:03:35.317Z,101785.69
2023-06-11T19:05:42.323Z,101784.81
2023-06-11T19:07:44.017Z,101786.44
2023-06-11T19:09:45.655Z,101792.47
2023-06-11T19:11:48.947Z,101789.53
2023-06-11T19:13:51.393Z,101787.69
2023-06-11T19:15:54.939Z,101789.13
2023-06-11T19:17:56.481Z,101792.41
2023-06-11T19:19:58.115Z,101795.38
2023-06-11T19:21:59.614Z,101794.00
2023-06-11T19:24:01.240Z,101801.13
2023-06-11T19:26:03.035Z,101800.13
2023-06-11T19:28:04.713Z,101801.44
2023-06-11T19:30:06.900Z,101807.22
2023-06-11T19:32:08.770Z,101808.91
2023-06-11T19:34:10.305Z,101810.25
2023-06-11T19:36:12.114Z,101808.13
2023-06-11T19:38:13.894Z,101812.16
2023-06-11T19:40:16.083Z,101807.28
2023-06-11T19:42:17.619Z,101808.97
2023-06-11T19:44:19.222Z,101811.38
2023-06-11T19:46:21.479Z,101807.94
2023-06-11T19:48:24.259Z,101806.78
2023-06-11T19:50:27.380Z,101814.63
2023-06-11T19:52:28.989Z,101812.56
2023-06-11T19:54:45.924Z,101812.78
2023-06-11T19:56:51.816Z,101815.31
2023-06-11T19:58:54.392Z,101817.44
2023-06-11T20:00:56.295Z,101820.50
2023-06-11T20:02:57.920Z,101834.22
2023-06-11T20:04:59.530Z,101827.53
2023-06-11T20:07:01.014Z,101830.00
2023-06-11T20:09:04.473Z,101834.78
2023-06-11T20:11:11.420Z,101836.28
2023-06-11T20:13:13.162Z,101833.06
2023-06-11T20:15:15.038Z,101828.31
2023-06-11T20:17:16.586Z,101828.53
2023-06-11T20:19:18.514Z,101829.06
2023-06-11T20:21:20.044Z,101835.81
2023-06-11T20:23:21.526Z,101841.53
2023-06-11T20:25:23.083Z,101837.44
2023-06-11T20:27:25.242Z,101837.00
2023-06-11T20:29:26.817Z,101846.59
2023-06-11T20:31:28.467Z,101839.78
2023-06-11T20:33:35.620Z,101843.94
2023-06-11T20:35:37.105Z,101855.25
2023-06-11T20:37:38.663Z,101855.75
2023-06-11T20:39:40.408Z,101859.44
2023-06-11T20:41:41.908Z,101859.75
2023-06-11T20:43:43.427Z,101870.25
2023-06-11T20:45:54.569Z,101865.25
2023-06-11T20:47:59.645Z,101867.28
2023-06-11T20:50:01.388Z,101879.41
2023-06-11T20:52:02.993Z,101879.72
2023-06-11T20:54:04.704Z,101874.81
2023-06-11T20:56:06.444Z,101876.97
2023-06-11T20:58:07.964Z,101874.00
2023-06-11T21:00:10.319Z,101877.94
2023-06-11T21:02:12.138Z,101885.56
2023-06-11T21:04:13.730Z,101884.19
2023-06-11T21:06:15.483Z,101885.44
2023-06-11T21:08:18.916Z,101883.28
2023-06-11T21:10:20.612Z,101885.03
2023-06-11T21:12:22.589Z,101881.84
2023-06-11T21:14:24.309Z,101884.94
2023-06-11T21:16:25.866Z,101887.16
2023-06-11T21:18:27.374Z,101886.72
2023-06-11T21:20:28.941Z,101883.53
2023-06-11T21:22:30.433Z,101888.34
2023-06-11T21:24:31.930Z,101885.94
2023-06-11T21:26:33.885Z,101895.34
2023-06-11T21:28:37.066Z,101896.47
2023-06-11T21:30:38.713Z,101893.13
2023-06-11T21:32:40.442Z,101897.19
2023-06-11T21:34:42.005Z,101896.69
2023-06-11T21:36:44.180Z,101899.63
2023-06-11T21:38:45.808Z,101892.78
2023-06-11T21:40:47.348Z,101885.94
2023-06-11T21:42:48.874Z,101886.31
2023-06-11T21:44:50.366Z,101888.22
2023-06-11T21:46:51.954Z,101891.09
2023-06-11T21:48:53.520Z,101889.81
2023-06-11T21:50:54.997Z,101888.50
2023-06-11T21:52:56.731Z,101885.22
2023-06-11T21:54:58.367Z,101893.72
2023-06-11T21:56:59.932Z,101887.66
2023-06-11T21:59:01.419Z,101889.81
2023-06-11T22:01:03.013Z,101900.75
2023-06-11T22:03:05.050Z,101891.97
2023-06-11T22:05:07.936Z,101901.16
2023-06-11T22:07:09.471Z,101896.25
2023-06-11T22:09:12.332Z,101892.88
2023-06-11T22:11:13.865Z,101895.81
2023-06-11T22:13:16.517Z,101891.56
2023-06-11T22:15:18.133Z,101896.16
2023-06-11T22:17:22.757Z,101901.69
2023-06-11T22:19:25.257Z,101899.25
2023-06-11T22:21:26.879Z,101897.69
2023-06-11T22:23:45.164Z,101894.41
2023-06-11T22:25:51.032Z,101900.94
2023-06-11T22:27:52.941Z,101901.97
2023-06-11T22:29:54.437Z,101900.56
2023-06-11T22:31:56.005Z,101902.56
2023-06-11T22:33:57.933Z,101906.34
2023-06-11T22:35:59.436Z,101903.03
2023-06-11T22:38:00.906Z,101900.53
2023-06-11T22:40:03.843Z,101896.34
2023-06-11T22:42:05.808Z,101895.72
2023-06-11T22:44:07.414Z,101897.81
2023-06-11T22:46:08.992Z,101899.69
2023-06-11T22:48:11.282Z,101897.34
2023-06-11T22:50:13.196Z,101894.97
2023-06-11T22:52:17.558Z,101898.94
2023-06-11T22:54:19.103Z,101892.00
2023-06-11T22:56:21.487Z,101894.75
2023-06-11T22:58:23.329Z,101895.06
2023-06-11T23:00:24.862Z,101893.50
2023-06-11T23:02:26.543Z,101897.34
2023-06-11T23:04:28.160Z,101887.78
2023-06-11T23:06:30.353Z,101890.69
2023-06-11T23:08:31.860Z,101894.31
2023-06-11T23:10:33.355Z,101889.97
2023-06-11T23:12:34.855Z,101889.41
2023-06-11T23:14:36.316Z,101892.09
2023-06-11T23:16:38.522Z,101892.25
2023-06-11T23:18:41.239Z,101886.25
2023-06-11T23:20:43.785Z,101886.41
2023-06-11T23:22:48.006Z,101887.50
2023-06-11T23:24:50.756Z,101884.19
2023-06-11T23:26:53.566Z,101885.13
2023-06-11T23:28:57.111Z,101881.66
2023-06-11T23:30:58.661Z,101880.94
2023-06-11T23:33:01.217Z,101881.16
2023-06-11T23:35:03.932Z,101878.66
2023-06-11T23:37:07.436Z,101880.69
2023-06-11T23:39:10.614Z,101877.34
2023-06-11T23:41:12.632Z,101875.75
2023-06-11T23:43:14.134Z,101868.75
2023-06-11T23:45:15.777Z,101866.22
2023-06-11T23:47:17.338Z,101866.38
2023-06-11T23:49:18.859Z,101862.97